Time;durP1;ratioP1;P1;durP2;ratioP2;P2;SDS_P1;SDS_P2;PMS_P1;PMS_P2;Temp;Humidity;BMP_temperature;BMP_pressure;BME280_temperature;BME280_humidity;BME280_pressure;Samples;Min_cycle;Max_cycle;Signal;HPM_P1;HPM_P2
2022/01/20 00:00:16;;;;;;;20.13;10.55;;;7.60;99.90;;;7.26;100.00;102693.94;4184521;28;20432;-67
2022/01/20 00:02:17;;;;;;;17.00;10.50;;;7.60;99.90;;;7.21;100.00;102698.63;4184366;28;20060;-67
2022/01/20 00:27:21;;;;;;;17.20;8.15;;;7.50;99.90;;;7.22;100.00;102692.44;4180996;28;20896;-66
2022/01/20 00:29:27;;;;;;;15.95;7.40;;;7.60;99.90;;;7.21;100.00;102694.22;4183947;28;20504;-66
2022/01/20 00:32:35;;;;;;;22.70;6.20;;;7.60;99.90;;;7.36;100.00;102692.50;4200097;28;20020;-66
2022/01/20 00:34:18;;;;;;;17.98;6.55;;;7.70;99.90;;;7.27;100.00;102703.53;4184468;28;20170;-66
2022/01/20 00:38:40;;;;;;;16.33;7.53;;;7.80;99.90;;;7.36;100.00;102725.78;4184243;28;20424;-66
2022/01/20 00:40:41;;;;;;;17.35;6.18;;;7.90;99.90;;;7.35;100.00;102711.78;4183899;28;20044;-66
2022/01/20 00:42:43;;;;;;;16.42;6.95;;;7.90;99.90;;;7.37;100.00;102702.06;4185141;28;20032;-66
2022/01/20 00:44:45;;;;;;;14.52;6.05;;;7.80;99.90;;;7.36;100.00;102712.66;4183810;28;20151;-66
2022/01/20 00:46:46;;;;;;;12.10;5.70;;;7.80;99.90;;;7.31;100.00;102715.53;4183617;28;20087;-66
2022/01/20 00:48:47;;;;;;;18.60;5.57;;;7.80;99.90;;;7.23;100.00;102707.25;4167005;28;20033;-66
2022/01/20 00:50:48;;;;;;;14.55;5.53;;;7.70;99.90;;;7.26;100.00;102728.06;4184999;28;20108;-66
2022/01/20 00:52:49;;;;;;;14.43;6.28;;;7.60;99.90;;;7.01;100.00;102710.25;4183780;28;20542;-66
2022/01/20 00:54:50;;;;;;;11.75;4.82;;;7.60;99.90;;;7.11;100.00;102710.56;4184863;28;20040;-66
2022/01/20 00:56:51;;;;;;;16.05;5.00;;;7.50;99.90;;;7.14;100.00;102708.59;4183528;28;20171;-66
2022/01/20 00:58:52;;;;;;;16.60;5.18;;;7.50;99.90;;;7.10;100.00;102717.59;4182969;28;20523;-66
2022/01/20 01:00:53;;;;;;;13.45;5.45;;;7.50;99.90;;;7.06;100.00;102720.47;4184715;28;20021;-66
2022/01/20 01:02:56;;;;;;;12.65;4.40;;;7.40;99.90;;;6.85;100.00;102712.00;4184601;28;20085;-66
2022/01/20 01:04:56;;;;;;;13.48;5.15;;;7.40;99.90;;;6.90;100.00;102724.88;4184519;28;20021;-66
2022/01/20 01:09:06;;;;;;;13.98;5.22;;;7.30;99.90;;;6.99;100.00;102722.56;4183546;28;20108;-67
2022/01/20 01:11:08;;;;;;;18.95;6.18;;;7.20;99.90;;;7.06;100.00;102725.72;4166826;28;20093;-67
2022/01/20 01:13:13;;;;;;;11.93;4.40;;;7.20;99.90;;;6.95;100.00;102720.22;4183378;28;20040;-66
2022/01/20 01:15:27;;;;;;;14.52;4.97;;;7.20;99.90;;;6.90;100.00;102727.50;4183099;28;20048;-66
2022/01/20 01:22:03;;;;;;;12.25;4.72;;;7.10;99.90;;;6.79;100.00;102738.56;4197308;28;20024;-66
2022/01/20 01:24:05;;;;;;;13.23;4.63;;;7.10;99.90;;;6.73;100.00;102741.53;4206210;28;20143;-66
2022/01/20 01:26:14;;;;;;;12.13;4.43;;;7.10;99.90;;;6.58;100.00;102724.84;4176215;28;20029;-66
2022/01/20 01:28:16;;;;;;;15.15;5.10;;;7.00;99.90;;;6.60;100.00;102727.38;4183081;28;20091;-66
2022/01/20 01:30:38;;;;;;;14.57;4.10;;;7.00;99.90;;;6.57;100.00;102723.13;4183116;28;20029;-66
2022/01/20 01:34:46;;;;;;;13.85;4.20;;;6.90;99.90;;;6.58;100.00;102734.47;4184190;28;20029;-66
2022/01/20 01:38:49;;;;;;;11.48;5.40;;;6.90;99.90;;;6.54;100.00;102739.03;4184414;28;20014;-66
2022/01/20 01:40:49;;;;;;;15.57;4.45;;;6.90;99.90;;;6.55;100.00;102743.34;4184110;28;20029;-66
2022/01/20 01:42:51;;;;;;;11.73;4.55;;;6.80;99.90;;;6.47;100.00;102745.53;4182983;28;20096;-66
2022/01/20 01:44:53;;;;;;;12.73;4.00;;;6.80;99.90;;;6.45;100.00;102755.25;4184122;28;20035;-66
2022/01/20 01:46:56;;;;;;;13.18;4.43;;;6.80;99.90;;;6.44;100.00;102758.81;4165888;28;20030;-66
2022/01/20 01:48:57;;;;;;;13.52;4.20;;;6.80;99.90;;;6.36;100.00;102760.13;4166378;28;20489;-66
2022/01/20 01:51:02;;;;;;;18.30;5.28;;;6.80;99.90;;;6.34;100.00;102764.59;4184053;28;20029;-66
2022/01/20 01:53:06;;;;;;;8.60;3.58;;;6.70;99.90;;;6.29;100.00;102758.75;4182859;28;20040;-66
2022/01/20 01:55:08;;;;;;;13.70;4.47;;;6.70;99.90;;;6.19;100.00;102763.59;4182709;28;20091;-66
2022/01/20 01:57:09;;;;;;;15.50;4.28;;;6.60;99.90;;;6.17;100.00;102764.63;4182620;28;20093;-67
2022/01/20 01:59:11;;;;;;;13.30;3.88;;;6.60;99.90;;;6.13;100.00;102766.53;4182788;28;20063;-66
2022/01/20 02:01:12;;;;;;;12.25;4.78;;;6.60;99.90;;;6.13;100.00;102777.03;4183922;28;20044;-66
2022/01/20 02:03:14;;;;;;;11.20;3.97;;;6.50;99.90;;;6.21;100.00;102772.25;4183700;28;20079;-66
2022/01/20 02:05:18;;;;;;;11.10;3.75;;;6.50;99.90;;;6.15;100.00;102764.72;4170719;28;20025;-66
2022/01/20 02:19:04;;;;;;;11.13;4.07;;;6.40;99.90;;;5.95;100.00;102783.19;4182714;28;20134;-66
2022/01/20 02:21:05;;;;;;;7.18;3.58;;;6.40;99.90;;;6.00;100.00;102792.50;4183655;28;20017;-66
2022/01/20 02:23:06;;;;;;;11.65;4.38;;;6.40;99.90;;;5.93;100.00;102778.03;4183665;28;20021;-66
2022/01/20 02:25:21;;;;;;;8.35;3.65;;;6.40;99.90;;;5.93;100.00;102790.28;4183727;28;20056;-66
2022/01/20 02:27:22;;;;;;;15.32;4.63;;;6.30;99.90;;;5.85;100.00;102782.81;4183668;28;20044;-66
2022/01/20 02:29:24;;;;;;;8.77;4.93;;;6.30;99.90;;;5.75;100.00;102793.78;4182428;28;20033;-66
2022/01/20 02:31:25;;;;;;;12.25;4.22;;;6.20;99.90;;;5.71;100.00;102797.44;4183621;28;20469;-66
2022/01/20 02:33:28;;;;;;;13.70;4.70;;;6.20;99.90;;;5.78;100.00;102793.63;4182279;28;20037;-66
2022/01/20 02:35:34;;;;;;;10.02;4.53;;;6.10;99.90;;;5.74;100.00;102794.69;4165679;28;20037;-66
2022/01/20 02:37:35;;;;;;;11.38;3.65;;;6.10;99.90;;;5.74;100.00;102806.00;4182397;28;20064;-66
2022/01/20 02:46:17;;;;;;;11.75;6.78;;;5.90;99.90;;;5.54;100.00;102806.97;4182367;28;20036;-66
2022/01/20 02:48:18;;;;;;;9.38;4.63;;;5.80;99.90;;;5.37;100.00;102801.72;4182091;28;20040;-66
2022/01/20 02:50:19;;;;;;;14.65;5.38;;;5.80;99.90;;;5.32;100.00;102793.19;4182265;28;20053;-66
2022/01/20 02:52:23;;;;;;;14.95;5.47;;;5.70;99.90;;;5.34;100.00;102790.53;4183616;28;20036;-66
2022/01/20 02:54:24;;;;;;;15.13;6.32;;;5.60;99.90;;;5.42;100.00;102796.25;4182374;28;20028;-66
2022/01/20 02:56:25;;;;;;;13.90;6.32;;;5.60;99.90;;;5.40;100.00;102793.72;4183258;28;20520;-66
2022/01/20 02:58:26;;;;;;;9.45;4.53;;;5.60;99.90;;;5.32;100.00;102805.44;4165664;28;20032;-66
2022/01/20 03:00:27;;;;;;;11.18;4.25;;;5.60;99.90;;;5.37;100.00;102801.72;4202760;28;20118;-66
2022/01/20 03:02:28;;;;;;;10.57;4.80;;;5.60;99.90;;;5.44;100.00;102805.72;4182079;28;20120;-66
2022/01/20 03:04:30;;;;;;;8.73;4.10;;;5.70;99.90;;;5.39;100.00;102802.47;4165752;28;20428;-66
2022/01/20 03:06:31;;;;;;;12.13;5.00;;;5.70;99.90;;;5.34;100.00;102806.22;4183250;28;20117;-66
2022/01/20 03:08:34;;;;;;;11.80;4.10;;;5.70;99.90;;;5.29;100.00;102811.66;4165731;28;20029;-66
2022/01/20 03:10:35;;;;;;;9.05;4.10;;;5.60;99.90;;;5.35;100.00;102821.84;4183256;28;20028;-66
2022/01/20 03:12:36;;;;;;;10.95;3.78;;;5.60;99.90;;;5.33;100.00;102818.47;4182147;28;20033;-66
2022/01/20 03:14:37;;;;;;;10.07;3.40;;;5.60;99.90;;;5.23;100.00;102822.41;4183069;28;20056;-66
2022/01/20 03:16:37;;;;;;;9.40;4.95;;;5.60;99.90;;;5.27;100.00;102823.97;4183119;28;20021;-66
2022/01/20 03:18:38;;;;;;;12.60;3.00;;;5.50;99.90;;;5.26;100.00;102809.19;4181903;28;20057;-66
2022/01/20 03:20:39;;;;;;;9.48;3.10;;;5.50;99.90;;;5.29;100.00;102805.56;4183280;28;20484;-66
2022/01/20 03:22:40;;;;;;;9.75;3.50;;;5.50;99.90;;;5.23;100.00;102809.34;4183033;28;20029;-66
2022/01/20 03:24:42;;;;;;;13.25;4.80;;;5.50;99.90;;;5.20;100.00;102819.09;4201620;28;20166;-66
2022/01/20 03:26:43;;;;;;;8.65;3.17;;;5.50;99.90;;;5.16;100.00;102818.41;4184715;28;20025;-66
2022/01/20 03:28:44;;;;;;;7.68;2.92;;;5.50;99.90;;;5.16;100.00;102820.16;4185123;28;20063;-66
2022/01/20 03:30:45;;;;;;;11.40;5.40;;;5.50;99.90;;;5.22;100.00;102819.88;4185068;28;20083;-66
2022/01/20 03:32:46;;;;;;;9.63;2.90;;;5.50;99.90;;;5.22;100.00;102820.75;4201194;28;20020;-66
2022/01/20 03:34:47;;;;;;;9.40;3.92;;;5.50;99.90;;;5.14;100.00;102816.78;4186089;28;20033;-66
2022/01/20 03:36:48;;;;;;;10.02;3.10;;;5.50;99.90;;;5.25;100.00;102815.38;4184666;28;20032;-66
2022/01/20 03:38:50;;;;;;;8.68;3.05;;;5.50;99.90;;;5.37;100.00;102814.78;4184839;28;20100;-66
2022/01/20 03:40:51;;;;;;;8.52;2.85;;;5.60;99.90;;;5.30;100.00;102823.84;4184714;28;20026;-66
2022/01/20 03:42:51;;;;;;;8.70;3.20;;;5.60;99.90;;;5.22;100.00;102820.75;4184828;28;20112;-66
2022/01/20 03:44:52;;;;;;;7.78;3.05;;;5.60;99.90;;;5.01;100.00;102817.34;4186066;28;20547;-66
2022/01/20 03:46:53;;;;;;;18.92;4.68;;;5.50;99.90;;;5.14;100.00;102825.44;4184238;28;20036;-66
2022/01/20 03:49:03;;;;;;;11.32;3.08;;;5.50;99.90;;;5.20;100.00;102827.78;4185981;28;20029;-66
2022/01/20 03:51:04;;;;;;;9.95;3.50;;;5.50;99.90;;;5.08;100.00;102811.84;4184759;28;20021;-66
2022/01/20 03:53:05;;;;;;;8.35;2.45;;;5.50;99.90;;;5.05;100.00;102819.81;4168206;28;20543;-66
2022/01/20 03:55:07;;;;;;;7.93;2.58;;;5.40;99.90;;;5.06;100.00;102814.50;4168076;28;20040;-66
2022/01/20 03:57:08;;;;;;;10.45;2.90;;;5.40;99.90;;;5.08;100.00;102807.41;4200965;28;20033;-66
2022/01/20 03:59:09;;;;;;;10.68;2.90;;;5.40;99.90;;;5.20;100.00;102817.31;4185859;28;20021;-66
2022/01/20 04:01:10;;;;;;;11.68;3.15;;;5.40;99.90;;;5.26;100.00;102822.28;4185791;28;20033;-66
2022/01/20 04:03:13;;;;;;;9.90;3.58;;;5.40;99.90;;;5.19;100.00;102825.25;4184360;28;20447;-66
2022/01/20 04:05:14;;;;;;;10.57;3.03;;;5.40;99.90;;;5.20;100.00;102821.69;4185733;28;20082;-66
2022/01/20 04:07:15;;;;;;;9.40;2.92;;;5.40;99.90;;;5.20;100.00;102827.78;4184267;28;20100;-66
2022/01/20 04:09:16;;;;;;;9.77;2.67;;;5.40;99.90;;;5.23;100.00;102832.88;4184539;28;20025;-66
2022/01/20 04:11:23;;;;;;;12.23;3.28;;;5.40;99.90;;;5.16;100.00;102825.41;4200930;28;20044;-66
2022/01/20 04:13:29;;;;;;;10.90;2.75;;;5.40;99.90;;;5.24;100.00;102842.44;4167997;28;20034;-66
2022/01/20 04:15:38;;;;;;;9.52;2.83;;;5.40;99.90;;;5.24;100.00;102833.72;4207018;28;20106;-66
2022/01/20 04:17:41;;;;;;;12.15;2.80;;;5.50;99.90;;;5.24;100.00;102831.97;4185131;28;20040;-67
2022/01/20 04:19:42;;;;;;;6.70;2.50;;;5.50;99.90;;;5.01;100.00;102837.41;4184198;28;20036;-66
2022/01/20 04:21:43;;;;;;;6.70;2.30;;;5.50;99.90;;;4.94;100.00;102846.44;4185394;28;20059;-66
2022/01/20 04:23:44;;;;;;;9.10;2.67;;;5.40;99.90;;;4.89;100.00;102843.19;4184363;28;20072;-66
2022/01/20 04:25:46;;;;;;;14.55;2.85;;;5.30;99.90;;;5.05;100.00;102844.19;4183904;28;20048;-66
2022/01/20 04:27:46;;;;;;;12.63;4.43;;;5.30;99.90;;;5.00;100.00;102841.78;4182574;28;20032;-66
2022/01/20 04:29:47;;;;;;;13.30;2.75;;;5.30;99.90;;;5.18;100.00;102834.88;4185372;28;20041;-66
2022/01/20 04:31:50;;;;;;;11.50;3.35;;;5.30;99.90;;;5.28;100.00;102844.00;4183573;28;20508;-66
2022/01/20 04:33:52;;;;;;;9.80;2.33;;;5.40;99.90;;;5.29;100.00;102848.28;4185327;28;20020;-66
2022/01/20 04:35:53;;;;;;;10.23;2.53;;;5.40;99.90;;;5.22;100.00;102835.59;4166892;28;20491;-66
2022/01/20 04:37:55;;;;;;;10.32;2.40;;;5.50;99.90;;;5.32;100.00;102836.84;4200529;28;20016;-66
2022/01/20 04:39:57;;;;;;;9.38;2.17;;;5.50;99.90;;;5.30;100.00;102833.44;4167607;28;20025;-66
2022/01/20 04:41:58;;;;;;;8.25;2.30;;;5.50;99.90;;;5.32;100.00;102835.06;4167239;28;20116;-66
2022/01/20 04:44:01;;;;;;;9.95;2.80;;;5.50;99.90;;;5.25;100.00;102838.91;4185082;28;20036;-66
2022/01/20 04:46:20;;;;;;;14.85;2.60;;;5.50;99.90;;;5.36;100.00;102833.16;4183722;28;20033;-66
2022/01/20 04:57:43;;;;;;;12.90;2.90;;;5.40;99.90;;;5.20;100.00;102827.78;4179989;28;20107;-66
2022/01/20 04:59:46;;;;;;;10.40;2.10;;;5.50;99.90;;;5.13;100.00;102826.41;4183656;28;20025;-66
2022/01/20 05:01:47;;;;;;;7.63;2.90;;;5.50;99.90;;;5.07;100.00;102825.81;4183237;28;20503;-66
2022/01/20 05:03:48;;;;;;;10.60;3.10;;;5.40;99.90;;;5.00;100.00;102828.72;4183508;28;20112;-66
2022/01/20 05:05:49;;;;;;;16.00;3.60;;;5.40;99.90;;;5.12;100.00;102831.69;4183347;28;20041;-66
2022/01/20 05:07:50;;;;;;;9.35;2.75;;;5.40;99.90;;;5.14;100.00;102835.91;4183473;28;20036;-66
2022/01/20 05:09:53;;;;;;;12.25;2.58;;;5.40;99.90;;;5.21;100.00;102829.50;4184599;28;20040;-66
2022/01/20 05:12:01;;;;;;;11.33;3.33;;;5.40;99.90;;;5.16;100.00;102830.63;4184560;28;20039;-66
2022/01/20 05:14:02;;;;;;;14.57;3.10;;;5.40;99.90;;;5.16;100.00;102841.94;4167667;28;20033;-66
2022/01/20 05:16:05;;;;;;;8.88;3.25;;;5.40;99.90;;;5.10;100.00;102837.00;4183010;28;20128;-66
2022/01/20 05:18:07;;;;;;;11.40;3.00;;;5.40;99.90;;;5.13;100.00;102844.69;4199335;28;20032;-66
2022/01/20 05:20:09;;;;;;;7.75;3.38;;;5.30;99.90;;;5.15;100.00;102839.38;4195578;28;20025;-66
2022/01/20 05:22:10;;;;;;;13.77;4.30;;;5.40;99.90;;;5.05;100.00;102849.41;4176576;28;20028;-66
2022/01/20 05:24:11;;;;;;;11.02;2.85;;;5.30;99.90;;;5.08;100.00;102849.28;4183355;28;20032;-66
2022/01/20 05:26:13;;;;;;;9.38;2.83;;;5.30;99.90;;;4.98;100.00;102854.09;4184255;28;20461;-66
2022/01/20 05:28:14;;;;;;;9.85;2.85;;;5.30;99.90;;;5.01;100.00;102850.47;4183180;28;20119;-66
2022/01/20 05:30:15;;;;;;;7.53;2.83;;;5.30;99.90;;;5.06;100.00;102843.28;4166559;28;20069;-66
2022/01/20 05:32:16;;;;;;;10.10;2.60;;;5.30;99.90;;;5.05;100.00;102843.34;4182785;28;20037;-66
2022/01/20 05:34:18;;;;;;;10.25;2.90;;;5.30;99.90;;;4.63;100.00;102856.56;4182356;28;20029;-66
2022/01/20 05:36:19;;;;;;;12.90;3.05;;;5.30;99.90;;;4.67;100.00;102861.56;4182888;28;20037;-66
2022/01/20 05:38:20;;;;;;;10.45;2.33;;;5.20;99.90;;;4.66;100.00;102862.47;4184242;28;20036;-66
2022/01/20 05:40:21;;;;;;;9.95;2.65;;;5.10;99.90;;;4.60;100.00;102856.69;4166521;28;20033;-66
2022/01/20 05:42:22;;;;;;;10.70;2.88;;;5.00;99.90;;;4.53;100.00;102865.69;4182836;28;20539;-66
2022/01/20 05:44:23;;;;;;;9.15;2.30;;;5.00;99.90;;;4.48;100.00;102863.25;4183012;28;20032;-66
2022/01/20 05:46:33;;;;;;;5.93;2.42;;;4.90;99.90;;;4.45;100.00;102859.03;4165853;28;20026;-66
2022/01/20 05:48:35;;;;;;;9.18;2.38;;;4.90;99.90;;;4.44;100.00;102856.50;4180002;28;20028;-66
2022/01/20 05:50:37;;;;;;;12.13;3.00;;;4.90;99.90;;;4.60;100.00;102864.53;4184207;28;20535;-66
2022/01/20 05:52:41;;;;;;;7.45;2.47;;;4.90;99.90;;;4.72;100.00;102866.63;4182885;28;20029;-66
2022/01/20 05:54:42;;;;;;;11.48;2.40;;;4.90;99.90;;;4.65;100.00;102860.81;4184149;28;20063;-66
2022/01/20 05:56:43;;;;;;;12.57;2.92;;;4.90;99.90;;;4.68;100.00;102878.13;4182702;28;20036;-66
2022/01/20 05:58:44;;;;;;;8.57;2.78;;;4.90;99.90;;;4.65;100.00;102880.84;4183886;28;20021;-66
2022/01/20 06:00:46;;;;;;;10.02;3.20;;;4.90;99.90;;;4.48;100.00;102879.78;4183798;28;20052;-66
2022/01/20 06:05:07;;;;;;;7.47;2.90;;;4.80;99.90;;;4.46;100.00;102892.09;4184107;28;20056;-65
2022/01/20 06:07:08;;;;;;;6.57;2.83;;;4.80;99.90;;;4.45;100.00;102893.00;4182686;28;20051;-66
2022/01/20 06:09:09;;;;;;;8.18;2.28;;;4.80;99.90;;;4.50;100.00;102881.50;4182758;28;20033;-66
2022/01/20 06:11:10;;;;;;;12.88;3.95;;;4.80;99.90;;;4.63;100.00;102883.53;4182833;28;20029;-66
2022/01/20 06:13:12;;;;;;;8.77;2.35;;;4.80;99.90;;;4.51;100.00;102883.22;4199169;28;20873;-66
2022/01/20 06:15:13;;;;;;;9.20;2.33;;;4.80;99.90;;;4.42;100.00;102887.91;4182432;28;20048;-67
2022/01/20 06:17:14;;;;;;;12.07;2.60;;;4.80;99.90;;;4.54;100.00;102896.97;4182204;28;20029;-67
2022/01/20 06:19:15;;;;;;;11.48;3.03;;;4.80;99.90;;;4.47;100.00;102904.25;4182452;28;20013;-66
2022/01/20 06:21:17;;;;;;;9.07;2.83;;;4.80;99.90;;;4.39;100.00;102911.53;4215710;28;20016;-66
2022/01/20 06:23:19;;;;;;;9.93;2.72;;;4.80;99.90;;;4.44;100.00;102909.59;4169355;28;20032;-66
2022/01/20 06:25:20;;;;;;;12.25;4.18;;;4.80;99.90;;;4.41;100.00;102904.50;4182494;28;20033;-66
2022/01/20 06:27:21;;;;;;;12.88;2.60;;;4.70;99.90;;;4.62;100.00;102900.13;4165598;28;20031;-66
2022/01/20 06:29:23;;;;;;;12.20;3.50;;;4.80;99.90;;;4.69;100.00;102904.16;4182989;28;20065;-66
2022/01/20 06:31:24;;;;;;;8.35;2.72;;;4.80;99.90;;;4.68;100.00;102917.31;4165956;28;20036;-66
2022/01/20 06:33:25;;;;;;;10.75;2.92;;;4.90;99.90;;;4.65;100.00;102904.38;4182231;28;20060;-66
2022/01/20 06:35:26;;;;;;;8.55;2.58;;;4.90;99.90;;;4.64;100.00;102923.59;4183519;28;20061;-66
2022/01/20 06:37:27;;;;;;;10.35;3.33;;;4.90;99.90;;;4.62;100.00;102920.19;4182419;28;20112;-66
2022/01/20 06:39:28;;;;;;;12.07;3.25;;;4.90;99.90;;;4.68;100.00;102925.16;4182399;28;20032;-66
2022/01/20 06:41:33;;;;;;;10.00;2.97;;;4.90;99.90;;;4.43;100.00;102926.19;4182296;28;20512;-66
2022/01/20 06:43:35;;;;;;;12.82;3.47;;;4.90;99.90;;;4.43;100.00;102931.41;4214995;28;20475;-66
2022/01/20 06:45:36;;;;;;;9.52;3.00;;;4.90;99.90;;;4.41;100.00;102929.78;4182064;28;20440;-67
2022/01/20 06:47:37;;;;;;;14.23;2.90;;;4.80;99.90;;;4.33;100.00;102937.91;4215478;28;20036;-67
2022/01/20 06:49:39;;;;;;;7.18;3.22;;;4.80;99.90;;;4.29;100.00;102945.94;4182280;28;20029;-67
2022/01/20 06:51:40;;;;;;;7.93;2.15;;;4.70;99.90;;;4.39;100.00;102953.34;4182236;28;20033;-66
2022/01/20 06:53:41;;;;;;;17.30;3.42;;;4.70;99.90;;;4.42;100.00;102955.84;4182170;28;20460;-66
2022/01/20 06:55:42;;;;;;;8.77;2.47;;;4.70;99.90;;;4.32;100.00;102946.69;4198761;28;20071;-67
2022/01/20 06:57:43;;;;;;;12.63;3.42;;;4.70;99.90;;;4.36;100.00;102956.06;4167000;28;20069;-67
2022/01/20 06:59:44;;;;;;;13.98;3.78;;;4.60;99.90;;;4.45;100.00;102953.09;4168945;28;20444;-66
2022/01/20 07:01:48;;;;;;;14.98;3.47;;;4.70;99.90;;;4.43;100.00;102952.31;4186402;28;20060;-66
2022/01/20 07:03:49;;;;;;;10.43;3.42;;;4.70;99.90;;;4.34;100.00;102960.53;4185535;28;20021;-66
2022/01/20 07:05:50;;;;;;;13.98;2.88;;;4.70;99.90;;;4.24;100.00;102964.41;4185370;28;20029;-66
2022/01/20 07:07:51;;;;;;;10.48;2.78;;;4.70;99.90;;;4.29;100.00;102967.72;4186751;28;20482;-66
2022/01/20 07:09:52;;;;;;;13.35;3.17;;;4.70;99.90;;;4.26;100.00;102969.59;4185430;28;20033;-66
2022/01/20 07:11:53;;;;;;;8.00;2.80;;;4.70;99.90;;;4.31;100.00;102965.03;4185453;28;20032;-66
2022/01/20 07:13:54;;;;;;;14.50;2.83;;;4.70;99.90;;;4.43;100.00;102964.53;4185332;28;20033;-67
2022/01/20 07:15:55;;;;;;;10.50;2.63;;;4.70;99.90;;;4.33;100.00;102969.25;4201575;28;20045;-66
2022/01/20 07:17:56;;;;;;;11.80;2.88;;;4.70;99.90;;;4.33;100.00;102968.44;4186118;28;20025;-66
2022/01/20 07:19:57;;;;;;;9.10;2.92;;;4.70;99.90;;;4.20;100.00;102973.31;4186410;28;20036;-66
2022/01/20 07:21:58;;;;;;;12.90;2.58;;;4.70;99.90;;;4.06;100.00;102961.69;4184972;28;20527;-66
2022/01/20 07:23:59;;;;;;;9.68;3.10;;;4.60;99.90;;;4.05;100.00;102968.69;4186298;28;20036;-66
2022/01/20 07:26:00;;;;;;;13.02;2.90;;;4.50;99.90;;;4.20;100.00;102970.69;4185153;28;21855;-66
2022/01/20 07:28:01;;;;;;;15.35;4.05;;;4.50;99.90;;;4.00;100.00;102975.84;4218446;28;20035;-66
2022/01/20 07:30:03;;;;;;;11.35;3.22;;;4.50;99.90;;;4.08;100.00;102970.31;4185005;28;20036;-66
2022/01/20 07:32:06;;;;;;;12.35;3.55;;;4.50;99.90;;;4.07;100.00;102971.22;4186057;28;20037;-66
2022/01/20 07:34:07;;;;;;;15.88;3.90;;;4.50;99.90;;;4.35;100.00;102959.63;4184854;28;20029;-66
2022/01/20 07:36:08;;;;;;;13.45;4.15;;;4.50;99.90;;;4.38;100.00;102972.56;4185687;28;20400;-66
2022/01/20 07:38:09;;;;;;;18.88;3.40;;;4.60;99.90;;;4.29;100.00;102969.47;4186275;28;20103;-66
2022/01/20 07:40:11;;;;;;;12.95;5.07;;;4.60;99.90;;;4.28;100.00;102981.66;4168237;28;20029;-66
2022/01/20 07:42:12;;;;;;;8.68;2.38;;;4.60;99.90;;;4.18;100.00;102976.88;4201404;28;20120;-66
2022/01/20 07:44:14;;;;;;;10.82;4.10;;;4.50;99.90;;;4.12;100.00;102964.06;4184669;28;20029;-66
2022/01/20 07:46:15;;;;;;;9.65;3.10;;;4.40;99.90;;;4.41;100.00;102969.81;4185781;28;20028;-66
2022/01/20 07:48:16;;;;;;;11.38;3.25;;;4.50;99.90;;;4.28;100.00;102980.81;4185641;28;20405;-66
2022/01/20 07:50:17;;;;;;;10.68;3.20;;;4.50;99.90;;;4.21;100.00;102971.53;4184405;28;20466;-66
2022/01/20 07:52:18;;;;;;;15.02;3.47;;;4.50;99.90;;;4.27;100.00;102985.19;4184738;28;20037;-66
2022/01/20 07:54:20;;;;;;;14.38;3.20;;;4.50;99.90;;;4.09;100.00;102988.50;4184459;28;20032;-66
2022/01/20 07:56:21;;;;;;;12.13;3.15;;;4.50;99.90;;;4.30;100.00;102990.28;4184308;28;20033;-66
2022/01/20 07:58:22;;;;;;;12.02;3.28;;;4.50;99.90;;;4.44;100.00;102992.38;4167998;28;20484;-66
2022/01/20 08:00:23;;;;;;;15.10;3.83;;;4.60;99.90;;;4.52;100.00;102984.19;4185681;28;20053;-66
2022/01/20 08:02:24;;;;;;;14.38;3.83;;;4.70;99.90;;;4.42;100.00;102995.03;4184273;28;20381;-66
2022/01/20 08:04:25;;;;;;;11.88;3.10;;;4.70;99.90;;;4.42;100.00;103010.69;4185583;28;20040;-66
2022/01/20 08:06:26;;;;;;;13.85;3.13;;;4.70;99.90;;;4.45;100.00;103007.97;4185363;28;20102;-68
2022/01/20 08:08:27;;;;;;;15.23;3.55;;;4.80;99.90;;;4.41;100.00;103014.25;4183977;28;20033;-67
2022/01/20 08:10:28;;;;;;;13.13;3.63;;;4.80;99.90;;;4.39;100.00;103008.22;4185552;28;20031;-66
2022/01/20 08:12:29;;;;;;;12.18;4.55;;;4.80;99.90;;;4.45;100.00;103013.19;4185605;28;20571;-67
2022/01/20 08:14:30;;;;;;;13.93;4.10;;;4.80;99.90;;;4.62;100.00;103014.28;4167298;28;20042;-66
2022/01/20 08:16:31;;;;;;;13.35;3.65;;;4.90;99.90;;;4.57;100.00;103011.84;4183617;28;20476;-66
2022/01/20 08:18:32;;;;;;;8.95;3.85;;;4.90;99.90;;;4.49;100.00;103021.78;4184048;28;20032;-66
2022/01/20 08:20:34;;;;;;;14.95;4.13;;;4.90;99.90;;;4.52;100.00;103015.56;4185123;28;20040;-66
2022/01/20 08:22:35;;;;;;;11.55;2.92;;;4.90;99.90;;;4.43;100.00;103028.09;4185379;28;20021;-66
2022/01/20 08:24:37;;;;;;;13.57;3.38;;;4.90;99.90;;;4.39;100.00;103026.50;4184067;28;20500;-66
2022/01/20 08:26:38;;;;;;;9.88;3.25;;;4.80;99.90;;;4.46;100.00;103038.44;4183933;28;20419;-66
2022/01/20 08:28:39;;;;;;;13.52;5.15;;;4.90;99.90;;;4.37;100.00;103032.72;4184124;28;20669;-66
2022/01/20 08:30:43;;;;;;;14.77;3.45;;;4.90;99.90;;;4.37;100.00;103038.78;4200660;28;20035;-66
2022/01/20 08:32:46;;;;;;;14.68;3.38;;;4.90;99.90;;;4.36;100.00;103037.06;4183725;28;20047;-66
2022/01/20 08:34:47;;;;;;;12.27;2.80;;;4.90;99.90;;;4.38;100.00;103050.94;4184950;28;20029;-66
2022/01/20 08:36:49;;;;;;;17.20;4.55;;;5.00;99.90;;;4.35;100.00;103048.47;4183797;28;20090;-66
2022/01/20 08:38:50;;;;;;;15.48;3.80;;;5.00;99.90;;;4.26;100.00;103046.19;4183956;28;20036;-66
2022/01/20 08:40:52;;;;;;;19.88;4.07;;;5.00;99.90;;;4.36;100.00;103050.13;4183753;28;20408;-68
2022/01/20 08:42:55;;;;;;;14.23;3.45;;;5.10;99.90;;;4.39;100.00;103057.03;4167307;28;20116;-68
2022/01/20 08:44:56;;;;;;;23.45;3.53;;;5.10;99.90;;;4.46;100.00;103051.50;4200161;28;20100;-68
2022/01/20 08:47:01;;;;;;;16.95;4.38;;;5.10;99.90;;;4.50;100.00;103052.22;4183330;28;20393;-68
2022/01/20 08:49:02;;;;;;;9.73;2.67;;;5.20;99.90;;;4.58;100.00;103047.53;4183570;28;20029;-70
2022/01/20 08:51:06;;;;;;;11.30;3.00;;;5.20;99.90;;;4.64;100.00;103043.81;4183353;28;20416;-69
2022/01/20 08:53:07;;;;;;;14.80;3.15;;;5.30;99.90;;;4.78;100.00;103055.41;4200162;28;20174;-68
2022/01/20 08:55:08;;;;;;;15.90;2.83;;;5.30;99.90;;;4.66;100.00;103050.69;4183468;28;20494;-69
2022/01/20 08:57:09;;;;;;;15.75;3.17;;;5.40;99.90;;;4.68;100.00;103048.03;4183561;28;20032;-68
2022/01/20 08:59:12;;;;;;;17.95;2.92;;;5.50;99.90;;;4.69;100.00;103049.75;4184928;28;20029;-69
2022/01/20 09:01:13;;;;;;;14.82;3.08;;;5.50;99.90;;;4.70;100.00;103051.41;4184741;28;20033;-68
2022/01/20 09:03:14;;;;;;;13.20;3.28;;;5.50;99.90;;;4.75;100.00;103062.56;4166520;28;20025;-69
2022/01/20 09:05:15;;;;;;;15.48;3.03;;;5.60;99.90;;;4.77;100.00;103042.44;4184792;28;20036;-68
2022/01/20 09:07:17;;;;;;;9.82;3.13;;;5.60;99.90;;;4.93;100.00;103048.72;4183427;28;20103;-68
2022/01/20 09:09:20;;;;;;;9.93;2.63;;;5.70;99.90;;;5.01;100.00;103051.88;4167061;28;20131;-68
2022/01/20 09:11:24;;;;;;;12.98;3.45;;;5.80;99.90;;;5.01;100.00;103047.50;4184692;28;20027;-68
2022/01/20 09:15:45;;;;;;;18.83;3.97;;;5.90;99.90;;;5.08;100.00;103047.25;4183079;28;20302;-69
2022/01/20 09:17:46;;;;;;;17.23;3.28;;;5.90;99.90;;;5.14;100.00;103054.84;4182959;28;20033;-68
2022/01/20 09:19:48;;;;;;;14.50;4.25;;;6.00;99.90;;;5.19;100.00;103068.56;4183824;28;20033;-68
2022/01/20 09:21:49;;;;;;;9.68;2.70;;;6.00;99.90;;;5.21;100.00;103067.59;4182715;28;20088;-68
2022/01/20 09:23:50;;;;;;;13.93;4.32;;;6.00;99.90;;;5.29;100.00;103075.94;4183100;28;20025;-68
2022/01/20 09:25:51;;;;;;;17.90;3.97;;;6.10;99.90;;;5.27;100.00;103072.56;4182674;28;20513;-68
2022/01/20 09:27:55;;;;;;;14.75;4.43;;;6.10;99.90;;;5.33;100.00;103068.81;4184314;28;20033;-68
2022/01/20 09:29:56;;;;;;;15.45;3.00;;;6.20;99.90;;;5.42;100.00;103063.19;4182889;28;20032;-68
2022/01/20 09:31:59;;;;;;;13.88;3.60;;;6.20;99.90;;;5.41;100.00;103059.72;4182367;28;20112;-68
2022/01/20 09:33:59;;;;;;;12.93;3.13;;;6.30;99.90;;;5.51;100.00;103071.50;4183973;28;20029;-69
2022/01/20 09:36:07;;;;;;;9.98;3.97;;;6.30;99.90;;;5.53;100.00;103072.28;4182448;28;20140;-68
2022/01/20 09:38:10;;;;;;;16.88;4.22;;;6.30;99.90;;;5.56;100.00;103071.28;4184197;28;20032;-69